Time;durP1;ratioP1;P1;durP2;ratioP2;P2;SDS_P1;SDS_P2;PMS_P1;PMS_P2;Temp;Humidity;BMP_temperature;BMP_pressure;BME280_temperature;BME280_humidity;BME280_pressure;Samples;Min_cycle;Max_cycle;Signal;HPM_P1;HPM_P2
2023/08/07 00:01:03;;;;;;;78.20;38.10;;;13.70;99.90;;;;;;6242539;23;20436;-74
2023/08/07 00:03:29;;;;;;;79.67;36.40;;;13.70;99.90;;;;;;6242317;23;20790;-75
2023/08/07 00:05:57;;;;;;;79.40;36.83;;;13.70;99.90;;;;;;6242375;23;20404;-74
2023/08/07 00:08:24;;;;;;;78.40;36.23;;;13.70;99.90;;;;;;6242186;23;20406;-75
2023/08/07 00:10:51;;;;;;;77.67;34.67;;;13.70;99.90;;;;;;6242169;23;20438;-74
2023/08/07 00:13:18;;;;;;;77.70;38.37;;;13.80;99.90;;;;;;6242322;23;20415;-75
2023/08/07 00:15:45;;;;;;;77.57;36.30;;;13.90;99.90;;;;;;6242580;23;20404;-75
2023/08/07 00:18:12;;;;;;;77.17;35.60;;;13.80;99.90;;;;;;6241830;23;20404;-75
2023/08/07 00:20:38;;;;;;;76.17;32.73;;;13.80;99.90;;;;;;6241911;23;20817;-76
2023/08/07 00:23:06;;;;;;;77.83;34.47;;;13.80;99.90;;;;;;6242254;23;20729;-76
2023/08/07 00:25:33;;;;;;;78.40;37.23;;;13.80;99.90;;;;;;6242321;22;20428;-76
2023/08/07 00:28:00;;;;;;;79.03;36.90;;;13.80;99.90;;;;;;6241791;23;20436;-77
2023/08/07 00:30:26;;;;;;;76.93;34.00;;;13.80;99.90;;;;;;6241987;23;20407;-77
2023/08/07 00:32:53;;;;;;;76.47;34.47;;;13.90;99.90;;;;;;6241820;23;20404;-77
2023/08/07 00:35:20;;;;;;;78.80;36.20;;;13.90;99.90;;;;;;6241842;23;20404;-77
2023/08/07 00:37:46;;;;;;;78.10;37.10;;;13.90;99.90;;;;;;6242185;23;20735;-77
2023/08/07 00:40:14;;;;;;;77.67;37.07;;;13.90;99.90;;;;;;6242043;23;20953;-78
2023/08/07 00:42:41;;;;;;;80.43;43.27;;;13.90;99.90;;;;;;6242268;23;20419;-76
2023/08/07 00:45:08;;;;;;;80.20;44.10;;;13.90;99.90;;;;;;6241954;23;20407;-77
2023/08/07 00:47:37;;;;;;;82.50;45.07;;;13.90;99.90;;;;;;6242049;23;20405;-76
2023/08/07 00:50:05;;;;;;;80.10;46.97;;;14.00;99.90;;;;;;6241555;23;20407;-76
2023/08/07 00:52:33;;;;;;;78.53;42.30;;;14.00;99.90;;;;;;6241855;23;20404;-76
2023/08/07 00:55:00;;;;;;;79.33;44.30;;;13.90;99.90;;;;;;6241671;23;20404;-76
2023/08/07 00:57:28;;;;;;;79.27;44.80;;;14.00;99.90;;;;;;6241404;23;20407;-76
2023/08/07 00:59:55;;;;;;;81.80;42.00;;;14.00;99.90;;;;;;6241471;23;20404;-76
2023/08/07 01:02:22;;;;;;;80.90;43.43;;;14.00;99.90;;;;;;6240824;23;20412;-76
2023/08/07 01:04:50;;;;;;;81.60;47.70;;;14.00;99.90;;;;;;6241225;23;20411;-77
2023/08/07 01:07:16;;;;;;;79.30;43.23;;;13.90;99.90;;;;;;6241401;23;20714;-77
2023/08/07 01:09:43;;;;;;;82.60;44.70;;;14.00;99.90;;;;;;6241387;23;20780;-78
2023/08/07 01:12:18;;;;;;;79.57;42.80;;;14.10;99.90;;;;;;6240915;23;20412;-79
2023/08/07 01:14:53;;;;;;;85.80;46.23;;;14.10;99.90;;;;;;6241939;23;20394;-79
2023/08/07 01:17:23;;;;;;;80.77;44.67;;;14.10;99.90;;;;;;6241559;23;20669;-79
2023/08/07 01:19:52;;;;;;;79.17;44.20;;;14.00;99.90;;;;;;6241073;23;20461;-80
2023/08/07 01:22:20;;;;;;;83.30;44.27;;;14.00;99.90;;;;;;6241357;23;20736;-79
2023/08/07 01:24:49;;;;;;;79.90;45.10;;;14.00;99.90;;;;;;6240864;22;20423;-80
2023/08/07 01:27:28;;;;;;;82.13;45.70;;;14.00;99.90;;;;;;6241134;23;20435;-80
2023/08/07 01:30:00;;;;;;;79.07;41.93;;;14.00;99.90;;;;;;6240830;23;20903;-80
2023/08/07 01:32:32;;;;;;;77.97;40.80;;;14.00;99.90;;;;;;6241130;23;20384;-81
2023/08/07 01:35:01;;;;;;;79.77;43.90;;;14.00;99.90;;;;;;6241953;23;21064;-80
2023/08/07 01:37:31;;;;;;;79.90;44.80;;;13.90;99.90;;;;;;6242053;23;20407;-82
2023/08/07 01:39:59;;;;;;;80.47;42.13;;;13.90;99.90;;;;;;6242403;23;20674;-82
2023/08/07 01:42:26;;;;;;;82.30;46.60;;;14.00;99.90;;;;;;6242044;23;20444;-82
2023/08/07 01:44:53;;;;;;;80.10;43.97;;;14.00;99.90;;;;;;6242801;23;20416;-81
2023/08/07 01:47:20;;;;;;;83.00;43.17;;;14.00;99.90;;;;;;6242303;23;20419;-81
2023/08/07 01:49:46;;;;;;;81.40;44.20;;;13.90;99.90;;;;;;6241704;23;20403;-78
2023/08/07 01:52:13;;;;;;;79.90;42.70;;;13.90;99.90;;;;;;6241723;23;20415;-78
2023/08/07 01:54:41;;;;;;;80.40;42.10;;;14.00;99.90;;;;;;6240810;23;20900;-79
2023/08/07 01:57:08;;;;;;;79.67;44.13;;;14.10;99.90;;;;;;6241130;23;20412;-79
2023/08/07 01:59:35;;;;;;;79.47;42.17;;;14.00;99.90;;;;;;6241566;23;20403;-77
2023/08/07 02:02:01;;;;;;;80.37;40.47;;;14.00;99.90;;;;;;6240966;23;20941;-78
2023/08/07 02:04:28;;;;;;;77.70;38.50;;;14.10;99.90;;;;;;6241368;23;20400;-76
2023/08/07 02:06:55;;;;;;;78.40;38.70;;;14.10;99.90;;;;;;6241028;23;20408;-77
2023/08/07 02:09:21;;;;;;;82.87;41.67;;;14.00;99.90;;;;;;6240334;23;20407;-77
2023/08/07 02:11:50;;;;;;;80.50;42.73;;;14.10;99.90;;;;;;6240495;23;20727;-79
2023/08/07 02:14:16;;;;;;;83.60;40.07;;;14.10;99.90;;;;;;6240761;23;20400;-78
2023/08/07 02:16:43;;;;;;;78.87;41.20;;;14.10;99.90;;;;;;6240248;23;20412;-78
2023/08/07 02:19:10;;;;;;;79.67;40.67;;;14.00;99.90;;;;;;6239924;23;20650;-79
2023/08/07 02:21:36;;;;;;;78.67;40.40;;;14.00;99.90;;;;;;6240699;23;20446;-78
2023/08/07 02:24:03;;;;;;;81.53;41.63;;;14.10;99.90;;;;;;6242571;22;20891;-80
2023/08/07 02:26:30;;;;;;;83.60;39.47;;;14.10;99.90;;;;;;6242478;23;20883;-80
2023/08/07 02:28:58;;;;;;;79.87;41.43;;;14.10;99.90;;;;;;6242719;23;20408;-79
2023/08/07 02:31:25;;;;;;;78.00;39.40;;;14.10;99.90;;;;;;6242790;23;20400;-79
2023/08/07 02:33:51;;;;;;;79.13;40.50;;;14.10;99.90;;;;;;6243118;23;20400;-79
2023/08/07 02:36:18;;;;;;;80.07;43.00;;;14.00;99.90;;;;;;6242540;23;20415;-77
2023/08/07 02:38:44;;;;;;;81.33;48.40;;;13.90;99.90;;;;;;6242669;23;20453;-77
2023/08/07 02:41:11;;;;;;;78.57;43.60;;;13.70;99.90;;;;;;6242893;23;20446;-77
2023/08/07 02:43:38;;;;;;;81.60;45.00;;;13.60;99.90;;;;;;6242478;23;20731;-75
2023/08/07 02:46:06;;;;;;;80.70;44.07;;;13.50;99.90;;;;;;6242985;23;20705;-75
2023/08/07 02:48:33;;;;;;;81.73;46.33;;;13.50;99.90;;;;;;6243352;23;20404;-76
2023/08/07 02:50:59;;;;;;;79.90;45.70;;;13.40;99.90;;;;;;6242925;23;20411;-74
2023/08/07 02:53:26;;;;;;;80.77;44.70;;;13.30;99.90;;;;;;6243729;23;20400;-79
2023/08/07 02:55:52;;;;;;;80.17;45.00;;;13.30;99.90;;;;;;6243821;23;20404;-79
2023/08/07 02:58:19;;;;;;;80.90;44.60;;;13.30;99.90;;;;;;6243533;23;20411;-78
2023/08/07 03:00:46;;;;;;;79.50;42.40;;;13.30;99.90;;;;;;6243149;23;20404;-76
2023/08/07 03:03:14;;;;;;;79.40;40.67;;;13.40;99.90;;;;;;6242762;23;20407;-79
2023/08/07 03:05:50;;;;;;;80.40;42.23;;;13.50;99.90;;;;;;6242796;23;20622;-78
2023/08/07 03:08:16;;;;;;;78.67;41.40;;;13.50;99.90;;;;;;6242505;23;20506;-81
2023/08/07 03:10:43;;;;;;;80.67;43.40;;;13.70;99.90;;;;;;6242498;23;20404;-81
2023/08/07 03:13:10;;;;;;;79.33;39.13;;;13.70;99.90;;;;;;6242581;23;20907;-81
2023/08/07 03:15:36;;;;;;;79.70;42.63;;;13.70;99.90;;;;;;6242600;23;20894;-84
2023/08/07 03:18:03;;;;;;;80.63;43.20;;;13.70;99.90;;;;;;6243756;23;20414;-84
2023/08/07 03:20:31;;;;;;;82.10;40.87;;;13.70;99.90;;;;;;6243884;23;20403;-85
2023/08/07 03:22:58;;;;;;;80.77;41.40;;;13.70;99.90;;;;;;6243590;23;20443;-85
2023/08/07 03:25:24;;;;;;;86.27;41.10;;;13.70;99.90;;;;;;6242740;22;20555;-82
2023/08/07 03:27:51;;;;;;;81.83;40.63;;;13.70;99.90;;;;;;6242314;23;20962;-83
2023/08/07 03:30:18;;;;;;;81.10;41.10;;;13.70;99.90;;;;;;6243501;23;20440;-81
2023/08/07 03:32:45;;;;;;;78.77;41.00;;;13.70;99.90;;;;;;6242805;23;20921;-80
2023/08/07 03:35:11;;;;;;;79.00;40.57;;;13.70;99.90;;;;;;6244616;23;20672;-82
2023/08/07 03:37:39;;;;;;;79.60;40.53;;;13.70;99.90;;;;;;6244290;23;20596;-81
2023/08/07 03:40:07;;;;;;;80.67;42.33;;;13.70;99.90;;;;;;6245081;23;20404;-82
2023/08/07 03:42:34;;;;;;;82.30;40.37;;;13.70;99.90;;;;;;6244308;23;20462;-81
2023/08/07 03:45:01;;;;;;;83.17;42.43;;;13.70;99.90;;;;;;6243960;23;20455;-81
2023/08/07 03:47:27;;;;;;;83.20;42.57;;;13.70;99.90;;;;;;6242758;23;20423;-81
2023/08/07 03:49:54;;;;;;;81.30;42.00;;;13.70;99.90;;;;;;6243713;23;20722;-84
2023/08/07 03:52:21;;;;;;;80.37;39.17;;;13.70;99.90;;;;;;6243951;23;20781;-83
2023/08/07 03:54:49;;;;;;;112.33;42.77;;;13.70;99.90;;;;;;6245521;23;20404;-83
2023/08/07 03:57:16;;;;;;;81.47;42.03;;;13.60;99.90;;;;;;6243568;23;20404;-83
2023/08/07 03:59:42;;;;;;;79.97;40.90;;;13.70;99.90;;;;;;6244002;23;20403;-83
2023/08/07 04:02:09;;;;;;;79.07;40.90;;;13.70;99.90;;;;;;6241999;23;20447;-80
2023/08/07 04:04:36;;;;;;;81.40;40.43;;;13.70;99.90;;;;;;6242237;23;20408;-78
2023/08/07 04:07:03;;;;;;;79.53;40.20;;;13.70;99.90;;;;;;6242160;23;20922;-78
2023/08/07 04:09:29;;;;;;;79.90;43.70;;;13.80;99.90;;;;;;6242475;23;20400;-79
2023/08/07 04:11:57;;;;;;;78.87;41.80;;;13.80;99.90;;;;;;6243880;23;20419;-79
2023/08/07 04:14:24;;;;;;;82.70;43.10;;;13.70;99.90;;;;;;6242341;23;20522;-80
2023/08/07 04:16:51;;;;;;;81.10;42.30;;;13.70;99.90;;;;;;6241977;23;20415;-79
2023/08/07 04:19:18;;;;;;;78.90;41.23;;;13.50;99.90;;;;;;6242450;23;21125;-79
2023/08/07 04:21:45;;;;;;;83.53;44.47;;;13.50;99.90;;;;;;6241952;23;21028;-81
2023/08/07 04:24:11;;;;;;;82.47;41.87;;;13.60;99.90;;;;;;6242058;22;20407;-79
2023/08/07 04:26:38;;;;;;;80.90;41.97;;;13.60;99.90;;;;;;6241704;23;20435;-80
2023/08/07 04:29:07;;;;;;;81.10;41.63;;;13.60;99.90;;;;;;6242166;23;20404;-79
2023/08/07 04:31:33;;;;;;;80.50;40.87;;;13.70;99.90;;;;;;6243132;23;20495;-80
2023/08/07 04:34:00;;;;;;;81.43;43.70;;;13.70;99.90;;;;;;6242803;23;20486;-79
2023/08/07 04:36:27;;;;;;;81.43;41.70;;;13.70;99.90;;;;;;6241283;23;20741;-78
2023/08/07 04:38:55;;;;;;;79.27;41.00;;;13.80;99.90;;;;;;6241301;23;20400;-79
2023/08/07 04:41:21;;;;;;;79.60;40.13;;;13.80;99.90;;;;;;6241403;23;20443;-76
2023/08/07 04:43:48;;;;;;;79.47;38.50;;;13.90;99.90;;;;;;6241596;22;20411;-74
2023/08/07 04:46:16;;;;;;;78.47;40.30;;;13.80;99.90;;;;;;6242706;23;20410;-75
2023/08/07 04:48:43;;;;;;;82.63;38.40;;;13.90;99.90;;;;;;6241819;23;20418;-77
2023/08/07 04:51:10;;;;;;;78.03;37.67;;;14.00;99.90;;;;;;6241740;23;20745;-77
2023/08/07 04:53:36;;;;;;;78.10;39.33;;;14.00;99.90;;;;;;6242304;23;20415;-77
2023/08/07 04:56:04;;;;;;;78.47;41.10;;;14.00;99.90;;;;;;6242572;23;20437;-78
2023/08/07 04:58:30;;;;;;;82.57;40.27;;;14.10;99.90;;;;;;6242371;23;20507;-78
2023/08/07 05:00:57;;;;;;;80.10;38.77;;;14.10;99.90;;;;;;6242479;23;20410;-77
2023/08/07 05:03:26;;;;;;;81.50;38.13;;;14.10;99.90;;;;;;6241823;23;20773;-79
2023/08/07 05:05:59;;;;;;;79.67;38.90;;;14.20;99.90;;;;;;6242168;23;20739;-80
2023/08/07 05:08:26;;;;;;;80.80;38.17;;;14.20;99.90;;;;;;6242093;23;20394;-79
2023/08/07 05:10:52;;;;;;;79.10;40.43;;;14.20;99.90;;;;;;6242325;23;20411;-79
2023/08/07 05:13:19;;;;;;;78.73;37.90;;;14.20;99.90;;;;;;6242394;23;20407;-79
2023/08/07 05:15:48;;;;;;;80.90;38.93;;;14.20;99.90;;;;;;6241844;23;20763;-78
2023/08/07 05:18:15;;;;;;;82.00;40.80;;;14.20;99.90;;;;;;6242498;23;20408;-81
2023/08/07 05:20:43;;;;;;;78.87;38.10;;;14.30;99.90;;;;;;6241458;23;20746;-79
2023/08/07 05:23:10;;;;;;;80.07;37.10;;;14.40;99.90;;;;;;6241643;23;20705;-80
2023/08/07 05:25:37;;;;;;;79.53;37.47;;;14.40;99.90;;;;;;6240865;22;20931;-80
2023/08/07 05:28:05;;;;;;;83.30;37.87;;;14.40;99.90;;;;;;6240997;23;20443;-80
2023/08/07 05:30:31;;;;;;;77.57;36.77;;;14.40;99.90;;;;;;6241329;23;20412;-78
2023/08/07 05:32:58;;;;;;;79.40;36.30;;;14.50;99.90;;;;;;6240420;23;20404;-78
2023/08/07 05:35:25;;;;;;;78.10;37.23;;;14.50;99.90;;;;;;6241724;23;20507;-77
2023/08/07 05:37:53;;;;;;;85.57;36.57;;;14.50;99.90;;;;;;6241231;23;20431;-74
2023/08/07 05:40:20;;;;;;;78.27;37.80;;;14.60;99.90;;;;;;6241387;23;20407;-79
2023/08/07 05:42:47;;;;;;;77.93;36.80;;;14.80;99.90;;;;;;6238921;23;20444;-78
2023/08/07 05:45:13;;;;;;;84.00;35.93;;;14.90;99.90;;;;;;6240700;23;20400;-78
2023/08/07 05:47:40;;;;;;;78.00;37.00;;;14.90;99.90;;;;;;6240332;23;20416;-79
2023/08/07 05:50:07;;;;;;;78.93;36.23;;;14.90;99.90;;;;;;6240787;23;20408;-78
2023/08/07 05:52:34;;;;;;;79.37;35.00;;;15.00;99.90;;;;;;6241425;23;20400;-78
2023/08/07 05:55:03;;;;;;;78.63;35.43;;;15.00;99.90;;;;;;6241639;23;20711;-80
2023/08/07 05:57:29;;;;;;;76.47;37.07;;;15.20;99.90;;;;;;6240986;23;20442;-78
2023/08/07 05:59:56;;;;;;;76.47;36.80;;;15.30;99.90;;;;;;6240635;23;20702;-79
2023/08/07 06:02:23;;;;;;;80.17;35.13;;;15.40;99.90;;;;;;6240709;23;20447;-79
2023/08/07 06:04:49;;;;;;;76.07;35.50;;;15.70;99.90;;;;;;6240487;23;20415;-79
2023/08/07 06:07:16;;;;;;;78.20;33.80;;;15.90;99.90;;;;;;6240877;23;20401;-79
2023/08/07 06:09:43;;;;;;;75.67;32.90;;;16.00;99.90;;;;;;6240045;23;20419;-80
2023/08/07 06:12:11;;;;;;;76.73;33.37;;;15.90;99.90;;;;;;6239951;23;20958;-80
2023/08/07 06:14:38;;;;;;;79.97;33.40;;;15.80;99.90;;;;;;6237428;23;20414;-80
2023/08/07 06:17:05;;;;;;;76.27;35.10;;;15.80;99.90;;;;;;6239176;23;20431;-81
2023/08/07 06:19:32;;;;;;;75.60;33.13;;;15.90;99.90;;;;;;6241165;23;20432;-81
2023/08/07 06:21:59;;;;;;;77.37;35.00;;;15.80;99.90;;;;;;6240271;23;20443;-81
2023/08/07 06:24:26;;;;;;;77.10;32.53;;;15.80;99.90;;;;;;6240257;22;20416;-81
2023/08/07 06:26:53;;;;;;;77.90;33.23;;;15.90;99.90;;;;;;6240229;23;20432;-81
2023/08/07 06:29:21;;;;;;;75.47;33.80;;;15.90;99.90;;;;;;6240433;23;20914;-81
2023/08/07 06:31:47;;;;;;;78.87;33.20;;;16.00;99.90;;;;;;6240781;23;20411;-82
2023/08/07 06:34:14;;;;;;;77.97;33.07;;;16.10;99.90;;;;;;6240782;23;20423;-82
2023/08/07 06:36:41;;;;;;;77.50;33.70;;;16.40;99.90;;;;;;6240632;23;20410;-82
2023/08/07 06:39:08;;;;;;;77.87;32.87;;;16.50;99.90;;;;;;6240100;23;20459;-82
2023/08/07 06:41:34;;;;;;;77.00;32.50;;;16.50;99.90;;;;;;6241394;23;20412;-82
2023/08/07 06:44:01;;;;;;;76.20;32.80;;;16.50;99.90;;;;;;6241064;23;20440;-83
2023/08/07 06:46:29;;;;;;;78.47;33.60;;;16.20;99.90;;;;;;6240254;23;20475;-83
2023/08/07 06:48:56;;;;;;;78.90;33.73;;;16.40;99.90;;;;;;6240926;23;20437;-84
2023/08/07 06:51:22;;;;;;;76.60;32.30;;;16.80;99.90;;;;;;6240671;23;20907;-84
2023/08/07 06:53:49;;;;;;;76.20;31.67;;;16.90;99.90;;;;;;6240868;23;20410;-85
2023/08/07 06:56:16;;;;;;;78.67;34.27;;;17.10;99.90;;;;;;6240657;23;20423;-85
2023/08/07 06:58:42;;;;;;;76.07;32.47;;;17.20;99.90;;;;;;6240048;23;20412;-86
2023/08/07 07:01:09;;;;;;;74.30;31.80;;;17.30;99.90;;;;;;6240495;23;20906;-85
2023/08/07 07:03:37;;;;;;;74.20;31.53;;;17.60;99.90;;;;;;6240391;23;20440;-84
2023/08/07 07:06:04;;;;;;;78.33;34.40;;;17.90;99.90;;;;;;6240298;23;20415;-85
2023/08/07 07:08:31;;;;;;;74.40;31.40;;;17.80;99.90;;;;;;6244209;23;20514;-85
2023/08/07 07:10:58;;;;;;;75.20;31.60;;;17.70;99.90;;;;;;6244702;23;20491;-86
2023/08/07 07:13:24;;;;;;;74.60;31.90;;;17.80;99.90;;;;;;6244642;23;20764;-86
2023/08/07 07:15:54;;;;;;;74.10;31.03;;;18.00;99.90;;;;;;6244702;23;20407;-85
2023/08/07 07:18:21;;;;;;;75.00;32.80;;;18.40;99.90;;;;;;6246891;23;20458;-85
2023/08/07 07:20:52;;;;;;;75.53;31.40;;;18.60;99.50;;;;;;6247070;23;20408;-84
2023/08/07 07:23:18;;;;;;;74.87;31.37;;;18.60;99.10;;;;;;6244803;23;20420;-86
2023/08/07 07:25:45;;;;;;;75.00;31.60;;;19.20;99.40;;;;;;6244557;22;20423;-85
2023/08/07 07:28:12;;;;;;;74.67;30.63;;;19.40;98.20;;;;;;6242502;23;20435;-85
2023/08/07 07:30:40;;;;;;;73.97;31.00;;;19.30;97.10;;;;;;6242562;23;20415;-84
2023/08/07 07:33:06;;;;;;;74.70;30.60;;;19.40;97.70;;;;;;6241717;23;20891;-84
2023/08/07 07:35:38;;;;;;;73.70;30.30;;;18.70;97.60;;;;;;6241914;23;20415;-83
2023/08/07 07:38:06;;;;;;;73.80;31.50;;;18.40;98.50;;;;;;6242231;23;20513;-83
2023/08/07 07:40:35;;;;;;;74.90;32.50;;;18.60;98.70;;;;;;6250542;23;20403;-89
2023/08/07 07:43:02;;;;;;;78.77;32.87;;;18.70;98.60;;;;;;6248955;23;20440;-86
2023/08/07 07:45:29;;;;;;;73.33;32.40;;;18.60;99.10;;;;;;6244195;23;20427;-85
2023/08/07 07:47:55;;;;;;;73.80;32.60;;;18.30;99.50;;;;;;6244823;23;20490;-86
2023/08/07 07:50:22;;;;;;;75.90;31.10;;;18.40;99.50;;;;;;6245421;23;20896;-90
2023/08/07 07:52:49;;;;;;;75.57;31.13;;;18.90;98.80;;;;;;6246522;23;20443;-89
2023/08/07 07:55:17;;;;;;;74.63;31.27;;;19.40;97.70;;;;;;6247669;23;20404;-89
2023/08/07 07:57:44;;;;;;;74.17;31.47;;;20.00;97.40;;;;;;6247325;22;20408;-90
2023/08/07 08:00:13;;;;;;;74.20;31.00;;;20.00;96.70;;;;;;6248234;23;20521;-89
2023/08/07 08:02:40;;;;;;;73.30;29.50;;;20.00;96.70;;;;;;6255988;23;20443;-89
2023/08/07 08:05:10;;;;;;;73.73;30.90;;;20.00;95.80;;;;;;6245348;23;20507;-89
2023/08/07 08:07:38;;;;;;;73.10;30.90;;;20.10;96.00;;;;;;6245662;23;20814;-87
2023/08/07 08:10:06;;;;;;;73.93;30.30;;;19.90;95.80;;;;;;6245379;23;20907;-87
2023/08/07 08:12:35;;;;;;;74.50;32.90;;;18.90;95.10;;;;;;6245891;22;20408;-88
2023/08/07 08:15:02;;;;;;;72.00;29.23;;;18.60;95.20;;;;;;6245352;23;20874;-85
2023/08/07 08:17:29;;;;;;;74.37;30.30;;;18.10;95.70;;;;;;6245391;23;20909;-85
2023/08/07 08:19:56;;;;;;;73.00;29.73;;;17.90;96.00;;;;;;6244374;23;20430;-84
2023/08/07 08:22:23;;;;;;;75.77;30.90;;;17.90;96.50;;;;;;6244086;23;20415;-85
2023/08/07 08:24:50;;;;;;;73.07;30.43;;;18.00;97.00;;;;;;6242456;22;20511;-85
2023/08/07 08:27:18;;;;;;;73.47;30.93;;;17.70;96.60;;;;;;6238898;23;20432;-83
2023/08/07 08:29:46;;;;;;;75.17;31.93;;;17.50;97.00;;;;;;6241688;23;20489;-84
2023/08/07 08:32:13;;;;;;;73.40;31.20;;;17.70;98.30;;;;;;6241664;23;20467;-82
2023/08/07 08:34:40;;;;;;;73.00;30.57;;;17.40;98.70;;;;;;6242474;23;20408;-84
2023/08/07 08:37:07;;;;;;;74.97;30.50;;;17.60;98.60;;;;;;6244449;23;20404;-84
2023/08/07 08:39:34;;;;;;;73.10;30.10;;;18.00;97.60;;;;;;6244897;23;20462;-83
2023/08/07 08:42:01;;;;;;;72.37;30.87;;;18.30;97.40;;;;;;6244309;23;20396;-83
2023/08/07 08:44:30;;;;;;;72.57;31.93;;;18.70;96.10;;;;;;6243343;23;20450;-82
2023/08/07 08:47:00;;;;;;;71.90;29.80;;;19.30;95.60;;;;;;6242524;23;21015;-82
2023/08/07 08:49:34;;;;;;;71.90;30.60;;;19.70;94.20;;;;;;6243264;23;20860;-82
2023/08/07 08:52:01;;;;;;;72.50;29.57;;;19.60;93.30;;;;;;6242350;23;20898;-82
2023/08/07 08:54:28;;;;;;;76.30;31.90;;;19.60;92.10;;;;;;6242938;23;20688;-81
2023/08/07 08:56:56;;;;;;;71.97;31.17;;;19.70;92.50;;;;;;6240259;23;20416;-82
2023/08/07 08:59:23;;;;;;;74.50;31.80;;;20.00;91.70;;;;;;6241125;23;20411;-82
2023/08/07 09:01:52;;;;;;;72.67;31.70;;;20.10;90.50;;;;;;6241656;23;20404;-83
2023/08/07 09:04:20;;;;;;;72.07;32.00;;;20.30;90.10;;;;;;6240833;23;20593;-82
2023/08/07 09:06:47;;;;;;;73.07;31.87;;;20.40;89.70;;;;;;6240888;23;20909;-81
2023/08/07 09:09:15;;;;;;;73.67;30.97;;;20.70;88.60;;;;;;6241265;23;20655;-81
2023/08/07 09:11:43;;;;;;;71.90;30.97;;;20.70;88.10;;;;;;6240579;23;20423;-82
2023/08/07 09:14:12;;;;;;;73.03;30.60;;;20.30;88.70;;;;;;6241005;23;20400;-81
2023/08/07 09:16:40;;;;;;;76.37;32.03;;;20.20;89.40;;;;;;6236649;23;20466;-82
2023/08/07 09:19:07;;;;;;;73.80;34.27;;;21.00;89.30;;;;;;6224393;23;20504;-81
2023/08/07 09:21:36;;;;;;;72.30;31.57;;;21.60;86.20;;;;;;6240359;23;20400;-81
2023/08/07 09:24:03;;;;;;;73.00;32.00;;;22.20;85.10;;;;;;6240321;22;20439;-79
2023/08/07 09:26:29;;;;;;;73.80;32.00;;;22.70;83.80;;;;;;6240116;23;20463;-80
2023/08/07 09:28:59;;;;;;;75.43;32.10;;;22.60;81.90;;;;;;6240867;23;20418;-79
2023/08/07 09:31:27;;;;;;;71.10;30.17;;;22.60;82.50;;;;;;6240778;23;20490;-78
2023/08/07 09:33:54;;;;;;;73.30;32.00;;;22.30;83.10;;;;;;6240874;23;20415;-79
2023/08/07 09:36:20;;;;;;;72.97;31.57;;;22.20;82.90;;;;;;6241447;23;20909;-77
2023/08/07 09:38:51;;;;;;;72.17;30.67;;;22.30;82.90;;;;;;6241746;23;20797;-78
2023/08/07 09:41:19;;;;;;;73.70;33.67;;;21.70;85.80;;;;;;6242187;23;20488;-77
2023/08/07 09:43:45;;;;;;;72.77;30.30;;;21.60;85.00;;;;;;6240723;23;20479;-77
2023/08/07 09:46:13;;;;;;;74.37;31.80;;;21.10;87.00;;;;;;6240764;23;20487;-77
2023/08/07 09:48:41;;;;;;;71.47;30.97;;;20.80;86.00;;;;;;6240744;23;20677;-76
2023/08/07 09:51:08;;;;;;;71.80;30.07;;;20.30;83.80;;;;;;6240182;23;20408;-76
2023/08/07 09:53:36;;;;;;;71.90;31.13;;;20.30;84.60;;;;;;6240638;23;20400;-77
2023/08/07 09:56:04;;;;;;;71.57;30.50;;;20.70;83.50;;;;;;6240499;23;20408;-77
2023/08/07 09:58:31;;;;;;;74.00;32.30;;;21.10;84.90;;;;;;6242193;23;20416;-78
2023/08/07 10:01:00;;;;;;;72.47;32.00;;;21.90;83.30;;;;;;6241970;23;20404;-77
2023/08/07 10:03:27;;;;;;;73.80;33.13;;;22.40;81.60;;;;;;6241336;23;20444;-77
2023/08/07 10:05:55;;;;;;;72.37;32.50;;;22.50;80.00;;;;;;6240418;23;20403;-78
2023/08/07 10:08:22;;;;;;;72.77;33.43;;;22.60;80.00;;;;;;6239646;23;20415;-78
2023/08/07 10:10:49;;;;;;;70.97;31.83;;;22.70;78.60;;;;;;6239691;23;20419;-79
2023/08/07 10:13:18;;;;;;;74.30;31.20;;;23.10;77.70;;;;;;6240842;23;20404;-75
2023/08/07 10:15:46;;;;;;;73.60;32.63;;;23.00;78.10;;;;;;6241392;23;20430;-85
2023/08/07 10:18:13;;;;;;;72.73;31.10;;;23.30;78.90;;;;;;6241154;23;20457;-75
2023/08/07 10:20:43;;;;;;;72.67;34.90;;;24.10;75.20;;;;;;6240902;23;20404;-73
2023/08/07 10:23:12;;;;;;;73.07;33.00;;;24.10;74.10;;;;;;6240780;23;20767;-75
2023/08/07 10:25:42;;;;;;;71.40;31.77;;;24.70;73.60;;;;;;6240926;22;20423;-79
2023/08/07 10:28:13;;;;;;;70.97;30.70;;;24.40;70.20;;;;;;6239962;23;20955;-80
2023/08/07 10:30:42;;;;;;;72.40;32.33;;;23.80;71.30;;;;;;6240348;23;20389;-80
2023/08/07 10:33:11;;;;;;;72.13;31.50;;;23.90;70.60;;;;;;6239956;23;20411;-76
2023/08/07 10:35:38;;;;;;;72.37;31.87;;;23.30;72.30;;;;;;6239506;23;20406;-77
2023/08/07 10:38:08;;;;;;;74.23;32.37;;;23.20;72.80;;;;;;6240000;23;20400;-76
2023/08/07 10:40:35;;;;;;;71.77;30.30;;;22.80;74.60;;;;;;6239697;23;20844;-75
2023/08/07 10:43:14;;;;;;;71.30;31.30;;;22.50;72.90;;;;;;6241051;23;20432;-79
2023/08/07 10:45:42;;;;;;;70.63;29.83;;;22.30;75.00;;;;;;6242624;23;20392;-75
2023/08/07 10:48:11;;;;;;;73.37;31.50;;;21.90;77.00;;;;;;6241953;23;20661;-76
2023/08/07 10:50:51;;;;;;;71.40;30.27;;;21.40;76.30;;;;;;6242052;23;20412;-76
2023/08/07 10:53:30;;;;;;;71.77;31.30;;;21.00;77.60;;;;;;6242800;23;20392;-80
2023/08/07 10:55:57;;;;;;;72.37;30.83;;;20.80;79.00;;;;;;6243085;23;20395;-80
2023/08/07 10:58:25;;;;;;;73.27;30.80;;;20.70;80.10;;;;;;6241898;23;20971;-79
2023/08/07 11:01:18;;;;;;;73.83;30.80;;;20.50;81.30;;;;;;6242616;23;20410;-79
2023/08/07 11:03:45;;;;;;;74.00;31.80;;;20.70;81.80;;;;;;6242944;23;20474;-79
2023/08/07 11:06:12;;;;;;;71.90;31.43;;;20.70;83.50;;;;;;6243097;23;20408;-79
2023/08/07 11:08:38;;;;;;;73.00;30.40;;;20.80;81.00;;;;;;6243373;23;20426;-79
2023/08/07 11:11:06;;;;;;;71.53;30.50;;;20.80;80.10;;;;;;6243243;23;20395;-79
2023/08/07 11:13:33;;;;;;;71.00;30.27;;;21.40;80.10;;;;;;6243488;23;20784;-79
2023/08/07 11:16:02;;;;;;;72.07;29.90;;;21.20;78.60;;;;;;6242229;23;20407;-78
2023/08/07 11:18:28;;;;;;;73.10;31.97;;;21.10;79.50;;;;;;6242975;23;20419;-79
2023/08/07 11:20:56;;;;;;;70.80;28.80;;;20.90;79.60;;;;;;6243459;23;20895;-79
2023/08/07 11:23:25;;;;;;;71.27;28.63;;;20.70;79.30;;;;;;6243662;23;20404;-79
2023/08/07 11:25:53;;;;;;;70.57;28.50;;;20.50;80.60;;;;;;6242819;22;20920;-79
2023/08/07 11:28:20;;;;;;;72.47;30.63;;;20.20;81.80;;;;;;6213374;23;20408;-79
2023/08/07 11:30:49;;;;;;;75.57;31.50;;;20.10;82.30;;;;;;6213582;23;20427;-80
2023/08/07 11:33:18;;;;;;;71.93;29.90;;;19.80;83.20;;;;;;6213516;23;20424;-79
2023/08/07 11:35:45;;;;;;;75.60;31.10;;;19.60;85.60;;;;;;6212560;23;20420;-79
2023/08/07 11:38:12;;;;;;;71.97;31.30;;;19.80;87.10;;;;;;6212379;23;20411;-79
2023/08/07 11:40:39;;;;;;;73.90;30.80;;;20.10;87.50;;;;;;6212439;23;20529;-79
2023/08/07 11:43:06;;;;;;;72.60;31.50;;;19.90;86.60;;;;;;6213001;23;20727;-80
2023/08/07 11:45:32;;;;;;;72.40;31.17;;;20.00;87.10;;;;;;6213293;23;20451;-80
2023/08/07 11:47:59;;;;;;;71.73;28.93;;;20.20;87.60;;;;;;6213318;23;20409;-80
2023/08/07 11:50:28;;;;;;;72.43;31.20;;;20.10;86.90;;;;;;6213513;23;20900;-80
2023/08/07 11:53:00;;;;;;;73.90;30.60;;;20.10;87.10;;;;;;6213275;23;20408;-80
2023/08/07 11:55:29;;;;;;;72.13;30.33;;;19.80;87.80;;;;;;6212298;23;20940;-80
2023/08/07 11:57:56;;;;;;;71.10;29.13;;;19.50;89.70;;;;;;6212209;23;20900;-81
2023/08/07 12:00:27;;;;;;;73.40;30.33;;;19.30;90.10;;;;;;6213370;23;20415;-81
2023/08/07 12:02:54;;;;;;;75.43;31.50;;;19.20;90.90;;;;;;6212837;23;20393;-81
2023/08/07 12:05:21;;;;;;;74.87;31.93;;;19.00;91.20;;;;;;6212368;23;20449;-80
2023/08/07 12:07:49;;;;;;;75.60;31.97;;;18.90;91.80;;;;;;6212323;23;20944;-81
2023/08/07 12:10:16;;;;;;;74.50;30.23;;;18.90;92.50;;;;;;6211937;23;20409;-80
2023/08/07 12:12:44;;;;;;;73.60;31.37;;;19.00;92.50;;;;;;6211796;23;20436;-80
2023/08/07 12:15:11;;;;;;;72.07;29.77;;;19.20;92.70;;;;;;6212315;23;20474;-79
2023/08/07 12:17:38;;;;;;;73.73;30.93;;;19.20;92.00;;;;;;6211984;23;20420;-79
2023/08/07 12:20:10;;;;;;;72.37;30.40;;;19.30;92.40;;;;;;6212020;23;20405;-78
2023/08/07 12:22:37;;;;;;;72.03;30.73;;;19.30;92.40;;;;;;6211632;23;20397;-77
2023/08/07 12:25:06;;;;;;;72.97;32.07;;;19.30;92.10;;;;;;6211772;23;20449;-78
2023/08/07 12:27:32;;;;;;;72.57;30.43;;;19.50;92.20;;;;;;6232110;23;20436;-78